sensor_id;sensor_type;location;lat;lon;timestamp;P1;durP1;ratioP1;P2;durP2;ratioP2
2722;SDS011;1369;53.216;10.396;2023-07-09T14:46:32;3.40;;;2.27;;
2722;SDS011;1369;53.216;10.396;2023-07-09T14:51:40;5.70;;;3.60;;
2722;SDS011;1369;53.216;10.396;2023-07-09T14:56:17;2.77;;;2.50;;
2722;SDS011;1369;53.216;10.396;2023-07-09T14:58:43;3.07;;;2.47;;
2722;SDS011;1369;53.216;10.396;2023-07-09T15:01:15;2.50;;;2.23;;
2722;SDS011;1369;53.216;10.396;2023-07-09T15:03:40;3.00;;;2.07;;
2722;SDS011;1369;53.216;10.396;2023-07-09T15:07:07;1.90;;;1.80;;
2722;SDS011;1369;53.216;10.396;2023-07-09T15:09:36;3.80;;;2.33;;
2722;SDS011;1369;53.216;10.396;2023-07-09T15:12:02;2.70;;;2.20;;
2722;SDS011;1369;53.216;10.396;2023-07-09T15:14:28;2.40;;;1.83;;
2722;SDS011;1369;53.216;10.396;2023-07-09T15:16:53;3.50;;;2.90;;
2722;SDS011;1369;53.216;10.396;2023-07-09T15:19:20;3.93;;;1.97;;
2722;SDS011;1369;53.216;10.396;2023-07-09T15:21:47;2.90;;;2.17;;
2722;SDS011;1369;53.216;10.396;2023-07-09T15:26:46;2.83;;;2.43;;
2722;SDS011;1369;53.216;10.396;2023-07-09T15:29:16;3.50;;;2.00;;
2722;SDS011;1369;53.216;10.396;2023-07-09T15:31:41;2.43;;;2.23;;
2722;SDS011;1369;53.216;10.396;2023-07-09T15:34:06;1.90;;;1.63;;
2722;SDS011;1369;53.216;10.396;2023-07-09T15:36:32;2.33;;;2.13;;
2722;SDS011;1369;53.216;10.396;2023-07-09T15:38:58;3.60;;;2.87;;
2722;SDS011;1369;53.216;10.396;2023-07-09T15:41:23;2.70;;;2.37;;
2722;SDS011;1369;53.216;10.396;2023-07-09T15:43:49;3.10;;;2.00;;
2722;SDS011;1369;53.216;10.396;2023-07-09T15:46:21;3.10;;;2.77;;
2722;SDS011;1369;53.216;10.396;2023-07-09T15:48:47;2.83;;;2.37;;
2722;SDS011;1369;53.216;10.396;2023-07-09T15:51:14;3.10;;;2.47;;
2722;SDS011;1369;53.216;10.396;2023-07-09T15:53:40;3.80;;;2.40;;
2722;SDS011;1369;53.216;10.396;2023-07-09T15:56:11;3.43;;;2.97;;
2722;SDS011;1369;53.216;10.396;2023-07-09T15:58:45;2.53;;;1.97;;
2722;SDS011;1369;53.216;10.396;2023-07-09T16:01:11;2.10;;;1.90;;
2722;SDS011;1369;53.216;10.396;2023-07-09T16:03:38;1.97;;;1.77;;
2722;SDS011;1369;53.216;10.396;2023-07-09T16:06:10;4.50;;;2.17;;
2722;SDS011;1369;53.216;10.396;2023-07-09T16:08:36;2.83;;;1.80;;
2722;SDS011;1369;53.216;10.396;2023-07-09T16:11:04;3.10;;;2.03;;
2722;SDS011;1369;53.216;10.396;2023-07-09T16:13:38;3.20;;;2.10;;
2722;SDS011;1369;53.216;10.396;2023-07-09T16:16:04;4.40;;;1.93;;
2722;SDS011;1369;53.216;10.396;2023-07-09T16:18:30;2.53;;;1.73;;
2722;SDS011;1369;53.216;10.396;2023-07-09T16:20:55;3.00;;;2.80;;
2722;SDS011;1369;53.216;10.396;2023-07-09T16:23:21;2.43;;;1.93;;
2722;SDS011;1369;53.216;10.396;2023-07-09T16:25:50;2.80;;;2.60;;
2722;SDS011;1369;53.216;10.396;2023-07-09T16:28:16;2.40;;;2.00;;
2722;SDS011;1369;53.216;10.396;2023-07-09T16:30:44;3.83;;;2.00;;
2722;SDS011;1369;53.216;10.396;2023-07-09T16:33:11;2.40;;;1.90;;
2722;SDS011;1369;53.216;10.396;2023-07-09T16:35:38;3.27;;;2.60;;
2722;SDS011;1369;53.216;10.396;2023-07-09T16:38:03;2.67;;;2.47;;
2722;SDS011;1369;53.216;10.396;2023-07-09T16:40:30;2.33;;;2.00;;
2722;SDS011;1369;53.216;10.396;2023-07-09T16:42:57;2.60;;;2.40;;
2722;SDS011;1369;53.216;10.396;2023-07-09T16:45:24;2.00;;;1.80;;
2722;SDS011;1369;53.216;10.396;2023-07-09T16:47:50;2.97;;;2.27;;
2722;SDS011;1369;53.216;10.396;2023-07-09T16:50:20;3.63;;;2.40;;
2722;SDS011;1369;53.216;10.396;2023-07-09T16:52:51;2.77;;;2.00;;
2722;SDS011;1369;53.216;10.396;2023-07-09T16:55:25;3.73;;;2.23;;
2722;SDS011;1369;53.216;10.396;2023-07-09T17:01:24;2.43;;;2.20;;
2722;SDS011;1369;53.216;10.396;2023-07-09T17:03:49;2.40;;;2.20;;
2722;SDS011;1369;53.216;10.396;2023-07-09T17:06:16;3.50;;;2.57;;
2722;SDS011;1369;53.216;10.396;2023-07-09T17:08:41;3.10;;;2.80;;
2722;SDS011;1369;53.216;10.396;2023-07-09T17:11:08;3.40;;;2.80;;
2722;SDS011;1369;53.216;10.396;2023-07-09T17:13:35;2.50;;;2.30;;
2722;SDS011;1369;53.216;10.396;2023-07-09T17:16:01;2.97;;;2.63;;
2722;SDS011;1369;53.216;10.396;2023-07-09T17:18:27;3.40;;;3.10;;
2722;SDS011;1369;53.216;10.396;2023-07-09T17:20:56;3.80;;;2.73;;
2722;SDS011;1369;53.216;10.396;2023-07-09T17:23:24;2.87;;;2.57;;
2722;SDS011;1369;53.216;10.396;2023-07-09T17:25:54;2.73;;;2.47;;
2722;SDS011;1369;53.216;10.396;2023-07-09T17:28:25;5.80;;;2.73;;
2722;SDS011;1369;53.216;10.396;2023-07-09T17:30:53;3.30;;;2.90;;
2722;SDS011;1369;53.216;10.396;2023-07-09T17:33:20;2.77;;;2.43;;
2722;SDS011;1369;53.216;10.396;2023-07-09T17:35:46;4.10;;;3.27;;
2722;SDS011;1369;53.216;10.396;2023-07-09T17:38:21;3.70;;;3.30;;
2722;SDS011;1369;53.216;10.396;2023-07-09T17:40:55;3.17;;;2.70;;
2722;SDS011;1369;53.216;10.396;2023-07-09T17:43:22;3.00;;;2.70;;
2722;SDS011;1369;53.216;10.396;2023-07-09T17:45:49;3.37;;;2.97;;
2722;SDS011;1369;53.216;10.396;2023-07-09T17:48:24;3.37;;;3.07;;
2722;SDS011;1369;53.216;10.396;2023-07-09T17:50:55;2.70;;;2.50;;
2722;SDS011;1369;53.216;10.396;2023-07-09T17:53:22;3.73;;;3.00;;
2722;SDS011;1369;53.216;10.396;2023-07-09T17:55:49;3.60;;;3.00;;
2722;SDS011;1369;53.216;10.396;2023-07-09T17:58:17;2.83;;;2.63;;
2722;SDS011;1369;53.216;10.396;2023-07-09T18:01:01;3.27;;;3.03;;
2722;SDS011;1369;53.216;10.396;2023-07-09T18:03:28;4.00;;;2.80;;
2722;SDS011;1369;53.216;10.396;2023-07-09T18:05:53;3.27;;;2.97;;
2722;SDS011;1369;53.216;10.396;2023-07-09T18:08:19;4.00;;;3.13;;
2722;SDS011;1369;53.216;10.396;2023-07-09T18:10:45;2.80;;;2.60;;
2722;SDS011;1369;53.216;10.396;2023-07-09T18:15:39;6.20;;;3.00;;
2722;SDS011;1369;53.216;10.396;2023-07-09T18:18:06;3.30;;;2.90;;
2722;SDS011;1369;53.216;10.396;2023-07-09T18:20:32;4.00;;;3.20;;
2722;SDS011;1369;53.216;10.396;2023-07-09T18:22:58;3.70;;;3.20;;
2722;SDS011;1369;53.216;10.396;2023-07-09T18:25:24;2.90;;;2.70;;
2722;SDS011;1369;53.216;10.396;2023-07-09T18:27:51;3.43;;;3.13;;
2722;SDS011;1369;53.216;10.396;2023-07-09T18:30:20;3.63;;;2.70;;
2722;SDS011;1369;53.216;10.396;2023-07-09T18:32:47;4.00;;;2.90;;
2722;SDS011;1369;53.216;10.396;2023-07-09T18:37:54;3.13;;;2.90;;
2722;SDS011;1369;53.216;10.396;2023-07-09T18:40:22;3.30;;;2.83;;
2722;SDS011;1369;53.216;10.396;2023-07-09T18:42:51;3.93;;;3.20;;
2722;SDS011;1369;53.216;10.396;2023-07-09T18:45:17;3.33;;;3.00;;
2722;SDS011;1369;53.216;10.396;2023-07-09T18:47:45;3.73;;;3.10;;
2722;SDS011;1369;53.216;10.396;2023-07-09T18:50:20;3.90;;;2.90;;
2722;SDS011;1369;53.216;10.396;2023-07-09T18:52:48;3.90;;;3.50;;
2722;SDS011;1369;53.216;10.396;2023-07-09T18:55:16;4.13;;;3.73;;
2722;SDS011;1369;53.216;10.396;2023-07-09T18:57:44;3.63;;;3.10;;
2722;SDS011;1369;53.216;10.396;2023-07-09T19:00:10;4.17;;;3.83;;
2722;SDS011;1369;53.216;10.396;2023-07-09T19:02:37;3.70;;;3.03;;
2722;SDS011;1369;53.216;10.396;2023-07-09T19:05:08;4.30;;;2.53;;
2722;SDS011;1369;53.216;10.396;2023-07-09T19:07:37;2.60;;;2.27;;
2722;SDS011;1369;53.216;10.396;2023-07-09T19:10:02;3.80;;;3.40;;
2722;SDS011;1369;53.216;10.396;2023-07-09T19:12:28;3.50;;;3.20;;
2722;SDS011;1369;53.216;10.396;2023-07-09T19:14:53;3.20;;;2.90;;
2722;SDS011;1369;53.216;10.396;2023-07-09T19:17:28;4.40;;;3.23;;
2722;SDS011;1369;53.216;10.396;2023-07-09T19:19:54;4.60;;;4.20;;
2722;SDS011;1369;53.216;10.396;2023-07-09T19:22:19;4.00;;;2.93;;
2722;SDS011;1369;53.216;10.396;2023-07-09T19:24:45;4.87;;;3.17;;
2722;SDS011;1369;53.216;10.396;2023-07-09T19:27:11;4.07;;;3.77;;
2722;SDS011;1369;53.216;10.396;2023-07-09T19:29:36;3.60;;;3.20;;
2722;SDS011;1369;53.216;10.396;2023-07-09T19:32:04;3.77;;;3.23;;
2722;SDS011;1369;53.216;10.396;2023-07-09T19:34:37;3.50;;;3.20;;
2722;SDS011;1369;53.216;10.396;2023-07-09T19:37:05;4.07;;;3.13;;
2722;SDS011;1369;53.216;10.396;2023-07-09T19:39:43;4.03;;;3.30;;
2722;SDS011;1369;53.216;10.396;2023-07-09T19:44:39;3.13;;;2.83;;
2722;SDS011;1369;53.216;10.396;2023-07-09T19:47:05;3.23;;;2.87;;
2722;SDS011;1369;53.216;10.396;2023-07-09T19:49:30;6.17;;;3.90;;
2722;SDS011;1369;53.216;10.396;2023-07-09T19:51:59;4.00;;;3.47;;
2722;SDS011;1369;53.216;10.396;2023-07-09T19:54:25;5.13;;;4.10;;
2722;SDS011;1369;53.216;10.396;2023-07-09T19:56:50;5.80;;;3.93;;
2722;SDS011;1369;53.216;10.396;2023-07-09T19:59:17;4.37;;;3.97;;
2722;SDS011;1369;53.216;10.396;2023-07-09T20:01:43;4.07;;;3.27;;
2722;SDS011;1369;53.216;10.396;2023-07-09T20:04:12;4.00;;;3.60;;
2722;SDS011;1369;53.216;10.396;2023-07-09T20:06:37;4.00;;;3.20;;
2722;SDS011;1369;53.216;10.396;2023-07-09T20:09:04;2.70;;;2.10;;
2722;SDS011;1369;53.216;10.396;2023-07-09T20:11:37;2.40;;;2.07;;
2722;SDS011;1369;53.216;10.396;2023-07-09T20:14:07;2.37;;;2.10;;
2722;SDS011;1369;53.216;10.396;2023-07-09T20:16:39;2.00;;;1.67;;
2722;SDS011;1369;53.216;10.396;2023-07-09T20:19:08;1.70;;;1.53;;
2722;SDS011;1369;53.216;10.396;2023-07-09T20:21:36;2.20;;;1.80;;
2722;SDS011;1369;53.216;10.396;2023-07-09T20:24:14;2.47;;;1.60;;
2722;SDS011;1369;53.216;10.396;2023-07-09T20:26:44;2.20;;;1.97;;
2722;SDS011;1369;53.216;10.396;2023-07-09T20:29:16;3.20;;;1.83;;
2722;SDS011;1369;53.216;10.396;2023-07-09T20:31:47;2.43;;;1.77;;
2722;SDS011;1369;53.216;10.396;2023-07-09T20:34:21;2.03;;;1.83;;
2722;SDS011;1369;53.216;10.396;2023-07-09T20:36:48;2.17;;;1.97;;
2722;SDS011;1369;53.216;10.396;2023-07-09T20:39:22;4.30;;;1.87;;
2722;SDS011;1369;53.216;10.396;2023-07-09T20:41:49;2.47;;;1.60;;
2722;SDS011;1369;53.216;10.396;2023-07-09T20:44:18;1.70;;;1.47;;
2722;SDS011;1369;53.216;10.396;2023-07-09T20:46:46;3.20;;;1.50;;
2722;SDS011;1369;53.216;10.396;2023-07-09T20:49:32;1.70;;;1.50;;
2722;SDS011;1369;53.216;10.396;2023-07-09T20:52:00;2.10;;;1.60;;
2722;SDS011;1369;53.216;10.396;2023-07-09T20:54:31;1.67;;;1.57;;
2722;SDS011;1369;53.216;10.396;2023-07-09T20:56:57;1.80;;;1.60;;
2722;SDS011;1369;53.216;10.396;2023-07-09T20:59:24;2.07;;;1.40;;
2722;SDS011;1369;53.216;10.396;2023-07-09T21:01:51;2.53;;;1.70;;
2722;SDS011;1369;53.216;10.396;2023-07-09T21:04:17;1.90;;;1.80;;
2722;SDS011;1369;53.216;10.396;2023-07-09T21:06:45;1.93;;;1.73;;
2722;SDS011;1369;53.216;10.396;2023-07-09T21:09:16;1.80;;;1.40;;
2722;SDS011;1369;53.216;10.396;2023-07-09T21:11:53;1.50;;;1.40;;
2722;SDS011;1369;53.216;10.396;2023-07-09T21:14:18;2.03;;;1.63;;
2722;SDS011;1369;53.216;10.396;2023-07-09T21:16:44;2.57;;;1.60;;
2722;SDS011;1369;53.216;10.396;2023-07-09T21:19:22;2.13;;;1.77;;
2722;SDS011;1369;53.216;10.396;2023-07-09T21:21:50;1.70;;;1.30;;
2722;SDS011;1369;53.216;10.396;2023-07-09T21:24:23;1.60;;;1.37;;
2722;SDS011;1369;53.216;10.396;2023-07-09T21:26:51;2.47;;;1.63;;
2722;SDS011;1369;53.216;10.396;2023-07-09T21:29:17;1.43;;;1.27;;
2722;SDS011;1369;53.216;10.396;2023-07-09T21:31:44;1.53;;;1.30;;
2722;SDS011;1369;53.216;10.396;2023-07-09T21:34:17;2.53;;;1.57;;
2722;SDS011;1369;53.216;10.396;2023-07-09T21:36:46;1.60;;;1.50;;
2722;SDS011;1369;53.216;10.396;2023-07-09T21:39:13;1.93;;;1.50;;
2722;SDS011;1369;53.216;10.396;2023-07-09T21:41:40;2.23;;;1.10;;
2722;SDS011;1369;53.216;10.396;2023-07-09T21:44:06;1.80;;;1.23;;
2722;SDS011;1369;53.216;10.396;2023-07-09T21:46:31;3.70;;;1.83;;
2722;SDS011;1369;53.216;10.396;2023-07-09T21:48:57;2.43;;;1.50;;
2722;SDS011;1369;53.216;10.396;2023-07-09T21:51:22;1.90;;;1.50;;
2722;SDS011;1369;53.216;10.396;2023-07-09T21:53:48;1.53;;;1.13;;
2722;SDS011;1369;53.216;10.396;2023-07-09T21:56:13;2.60;;;2.33;;
2722;SDS011;1369;53.216;10.396;2023-07-09T21:58:39;2.80;;;1.67;;
2722;SDS011;1369;53.216;10.396;2023-07-09T22:01:04;1.60;;;1.47;;
2722;SDS011;1369;53.216;10.396;2023-07-09T22:03:34;1.77;;;1.50;;
2722;SDS011;1369;53.216;10.396;2023-07-09T22:05:59;2.37;;;2.17;;
2722;SDS011;1369;53.216;10.396;2023-07-09T22:08:25;2.73;;;1.73;;
2722;SDS011;1369;53.216;10.396;2023-07-09T22:10:50;2.10;;;1.40;;
2722;SDS011;1369;53.216;10.396;2023-07-09T22:13:17;1.60;;;1.20;;
2722;SDS011;1369;53.216;10.396;2023-07-09T22:15:44;2.63;;;1.70;;
2722;SDS011;1369;53.216;10.396;2023-07-09T22:18:13;2.00;;;1.80;;
2722;SDS011;1369;53.216;10.396;2023-07-09T22:20:41;1.57;;;1.40;;
2722;SDS011;1369;53.216;10.396;2023-07-09T22:23:09;2.00;;;1.50;;
2722;SDS011;1369;53.216;10.396;2023-07-09T22:25:46;1.63;;;1.50;;
2722;SDS011;1369;53.216;10.396;2023-07-09T22:28:13;2.17;;;1.90;;
2722;SDS011;1369;53.216;10.396;2023-07-09T22:30:39;3.93;;;1.60;;
2722;SDS011;1369;53.216;10.396;2023-07-09T22:33:05;1.97;;;1.43;;
2722;SDS011;1369;53.216;10.396;2023-07-09T22:35:32;1.90;;;1.70;;
2722;SDS011;1369;53.216;10.396;2023-07-09T22:37:59;2.50;;;2.30;;
2722;SDS011;1369;53.216;10.396;2023-07-09T22:40:25;3.40;;;2.27;;
2722;SDS011;1369;53.216;10.396;2023-07-09T22:42:53;1.83;;;1.60;;
2722;SDS011;1369;53.216;10.396;2023-07-09T22:45:23;2.90;;;2.00;;
2722;SDS011;1369;53.216;10.396;2023-07-09T22:47:51;2.50;;;1.87;;
2722;SDS011;1369;53.216;10.396;2023-07-09T22:50:23;2.90;;;1.93;;
2722;SDS011;1369;53.216;10.396;2023-07-09T22:52:53;2.10;;;1.90;;
2722;SDS011;1369;53.216;10.396;2023-07-09T22:55:24;2.73;;;2.30;;
2722;SDS011;1369;53.216;10.396;2023-07-09T22:57:53;2.23;;;1.70;;
2722;SDS011;1369;53.216;10.396;2023-07-09T23:00:20;2.33;;;2.07;;
2722;SDS011;1369;53.216;10.396;2023-07-09T23:02:45;2.40;;;2.00;;
2722;SDS011;1369;53.216;10.396;2023-07-09T23:05:11;2.47;;;2.10;;
2722;SDS011;1369;53.216;10.396;2023-07-09T23:07:37;4.43;;;1.90;;
2722;SDS011;1369;53.216;10.396;2023-07-09T23:10:03;2.00;;;1.80;;
2722;SDS011;1369;53.216;10.396;2023-07-09T23:12:39;5.53;;;2.10;;
2722;SDS011;1369;53.216;10.396;2023-07-09T23:15:17;1.87;;;1.73;;
2722;SDS011;1369;53.216;10.396;2023-07-09T23:17:49;2.13;;;1.90;;
2722;SDS011;1369;53.216;10.396;2023-07-09T23:20:16;3.13;;;2.33;;
2722;SDS011;1369;53.216;10.396;2023-07-09T23:22:41;2.90;;;2.13;;
2722;SDS011;1369;53.216;10.396;2023-07-09T23:25:08;2.33;;;1.70;;
2722;SDS011;1369;53.216;10.396;2023-07-09T23:27:36;3.00;;;2.03;;
2722;SDS011;1369;53.216;10.396;2023-07-09T23:30:08;2.30;;;2.10;;
2722;SDS011;1369;53.216;10.396;2023-07-09T23:32:42;1.97;;;1.73;;
2722;SDS011;1369;53.216;10.396;2023-07-09T23:35:14;3.20;;;2.10;;
2722;SDS011;1369;53.216;10.396;2023-07-09T23:37:42;1.97;;;1.80;;
2722;SDS011;1369;53.216;10.396;2023-07-09T23:40:08;2.57;;;2.13;;
2722;SDS011;1369;53.216;10.396;2023-07-09T23:42:34;19.23;;;2.33;;
2722;SDS011;1369;53.216;10.396;2023-07-09T23:45:00;2.80;;;1.90;;
2722;SDS011;1369;53.216;10.396;2023-07-09T23:47:26;2.67;;;2.47;;
2722;SDS011;1369;53.216;10.396;2023-07-09T23:49:52;2.30;;;2.10;;
2722;SDS011;1369;53.216;10.396;2023-07-09T23:52:17;2.67;;;2.10;;
2722;SDS011;1369;53.216;10.396;2023-07-09T23:54:44;2.70;;;2.30;;
2722;SDS011;1369;53.216;10.396;2023-07-09T23:57:12;2.73;;;1.93;;
2722;SDS011;1369;53.216;10.396;2023-07-09T23:59:37;2.80;;;2.37;;
